sensor_id;sensor_type;location;lat;lon;timestamp;pressure;altitude;pressure_sealevel;temperature
9985;BMP180;16737;50.932;6.780;2022-07-31T00:00:45;100544.00;;;26.30
9985;BMP180;16737;50.932;6.780;2022-07-31T00:03:12;100543.00;;;26.30
9985;BMP180;16737;50.932;6.780;2022-07-31T00:05:39;100549.00;;;26.30
9985;BMP180;16737;50.932;6.780;2022-07-31T00:08:06;100539.00;;;26.20
9985;BMP180;16737;50.932;6.780;2022-07-31T00:10:33;100538.00;;;26.20
9985;BMP180;16737;50.932;6.780;2022-07-31T00:13:00;100546.00;;;26.20
9985;BMP180;16737;50.932;6.780;2022-07-31T00:15:28;100551.00;;;26.20
9985;BMP180;16737;50.932;6.780;2022-07-31T00:17:55;100550.00;;;26.20
9985;BMP180;16737;50.932;6.780;2022-07-31T00:20:23;100551.00;;;26.10
9985;BMP180;16737;50.932;6.780;2022-07-31T00:22:50;100543.00;;;26.10
9985;BMP180;16737;50.932;6.780;2022-07-31T00:25:17;100544.00;;;26.10
9985;BMP180;16737;50.932;6.780;2022-07-31T00:27:45;100541.00;;;26.10
9985;BMP180;16737;50.932;6.780;2022-07-31T00:30:12;100533.00;;;26.00
9985;BMP180;16737;50.932;6.780;2022-07-31T00:32:43;100535.00;;;26.00
9985;BMP180;16737;50.932;6.780;2022-07-31T00:35:10;100527.00;;;26.00
9985;BMP180;16737;50.932;6.780;2022-07-31T00:37:40;100524.00;;;25.90
9985;BMP180;16737;50.932;6.780;2022-07-31T00:40:10;100518.00;;;25.90
9985;BMP180;16737;50.932;6.780;2022-07-31T00:42:39;100502.00;;;25.90
9985;BMP180;16737;50.932;6.780;2022-07-31T00:45:08;100515.00;;;25.80
9985;BMP180;16737;50.932;6.780;2022-07-31T00:47:35;100510.00;;;25.80
9985;BMP180;16737;50.932;6.780;2022-07-31T00:50:05;100510.00;;;25.80
9985;BMP180;16737;50.932;6.780;2022-07-31T00:52:32;100497.00;;;25.80
9985;BMP180;16737;50.932;6.780;2022-07-31T00:55:00;100497.00;;;25.80
9985;BMP180;16737;50.932;6.780;2022-07-31T00:57:27;100501.00;;;25.70
9985;BMP180;16737;50.932;6.780;2022-07-31T00:59:54;100504.00;;;25.70
9985;BMP180;16737;50.932;6.780;2022-07-31T01:02:21;100504.00;;;25.70
9985;BMP180;16737;50.932;6.780;2022-07-31T01:04:48;100501.00;;;25.70
9985;BMP180;16737;50.932;6.780;2022-07-31T01:07:17;100497.00;;;25.70
9985;BMP180;16737;50.932;6.780;2022-07-31T01:09:46;100497.00;;;25.70
9985;BMP180;16737;50.932;6.780;2022-07-31T01:12:21;100496.00;;;25.70
9985;BMP180;16737;50.932;6.780;2022-07-31T01:14:57;100486.00;;;25.60
9985;BMP180;16737;50.932;6.780;2022-07-31T01:17:28;100484.00;;;25.60
9985;BMP180;16737;50.932;6.780;2022-07-31T01:19:56;100498.00;;;25.60
9985;BMP180;16737;50.932;6.780;2022-07-31T01:23:05;100499.00;;;25.50
9985;BMP180;16737;50.932;6.780;2022-07-31T01:25:50;100496.00;;;25.50
9985;BMP180;16737;50.932;6.780;2022-07-31T01:28:40;100497.00;;;25.50
9985;BMP180;16737;50.932;6.780;2022-07-31T01:31:16;100496.00;;;25.50
9985;BMP180;16737;50.932;6.780;2022-07-31T01:33:50;100485.00;;;25.40
9985;BMP180;16737;50.932;6.780;2022-07-31T01:36:23;100484.00;;;25.40
9985;BMP180;16737;50.932;6.780;2022-07-31T01:38:54;100486.00;;;25.40
9985;BMP180;16737;50.932;6.780;2022-07-31T01:41:29;100485.00;;;25.40
9985;BMP180;16737;50.932;6.780;2022-07-31T01:44:02;100481.00;;;25.40
9985;BMP180;16737;50.932;6.780;2022-07-31T01:46:33;100462.00;;;25.30
9985;BMP180;16737;50.932;6.780;2022-07-31T01:49:02;100482.00;;;25.30
9985;BMP180;16737;50.932;6.780;2022-07-31T01:51:30;100485.00;;;25.30
9985;BMP180;16737;50.932;6.780;2022-07-31T01:54:00;100471.00;;;25.30
9985;BMP180;16737;50.932;6.780;2022-07-31T01:56:29;100476.00;;;25.30
9985;BMP180;16737;50.932;6.780;2022-07-31T01:59:01;100481.00;;;25.30
9985;BMP180;16737;50.932;6.780;2022-07-31T02:01:30;100476.00;;;25.30
9985;BMP180;16737;50.932;6.780;2022-07-31T02:03:59;100476.00;;;25.30
9985;BMP180;16737;50.932;6.780;2022-07-31T02:06:27;100470.00;;;25.30
9985;BMP180;16737;50.932;6.780;2022-07-31T02:08:55;100471.00;;;25.30
9985;BMP180;16737;50.932;6.780;2022-07-31T02:11:23;100467.00;;;25.30
9985;BMP180;16737;50.932;6.780;2022-07-31T02:13:52;100469.00;;;25.20
9985;BMP180;16737;50.932;6.780;2022-07-31T02:16:36;100470.00;;;25.20
9985;BMP180;16737;50.932;6.780;2022-07-31T02:19:06;100466.00;;;25.20
9985;BMP180;16737;50.932;6.780;2022-07-31T02:21:37;100472.00;;;25.20
9985;BMP180;16737;50.932;6.780;2022-07-31T02:24:06;100471.00;;;25.10
9985;BMP180;16737;50.932;6.780;2022-07-31T02:26:35;100473.00;;;25.10
9985;BMP180;16737;50.932;6.780;2022-07-31T02:29:05;100473.00;;;25.10
9985;BMP180;16737;50.932;6.780;2022-07-31T02:31:35;100474.00;;;25.10
9985;BMP180;16737;50.932;6.780;2022-07-31T02:34:03;100474.00;;;25.10
9985;BMP180;16737;50.932;6.780;2022-07-31T02:36:33;100475.00;;;25.00
9985;BMP180;16737;50.932;6.780;2022-07-31T02:39:02;100473.00;;;25.10
9985;BMP180;16737;50.932;6.780;2022-07-31T02:41:29;100485.00;;;25.00
9985;BMP180;16737;50.932;6.780;2022-07-31T02:43:57;100469.00;;;25.00
9985;BMP180;16737;50.932;6.780;2022-07-31T02:46:26;100484.00;;;25.00
9985;BMP180;16737;50.932;6.780;2022-07-31T02:48:55;100478.00;;;25.00
9985;BMP180;16737;50.932;6.780;2022-07-31T02:51:25;100483.00;;;25.00
9985;BMP180;16737;50.932;6.780;2022-07-31T02:53:52;100474.00;;;25.00
9985;BMP180;16737;50.932;6.780;2022-07-31T02:56:21;100468.00;;;25.10
9985;BMP180;16737;50.932;6.780;2022-07-31T02:58:49;100473.00;;;25.10
9985;BMP180;16737;50.932;6.780;2022-07-31T03:01:17;100478.00;;;25.00
9985;BMP180;16737;50.932;6.780;2022-07-31T03:03:44;100471.00;;;25.00
9985;BMP180;16737;50.932;6.780;2022-07-31T03:06:13;100466.00;;;25.00
9985;BMP180;16737;50.932;6.780;2022-07-31T03:08:41;100471.00;;;25.00
9985;BMP180;16737;50.932;6.780;2022-07-31T03:11:08;100464.00;;;25.00
9985;BMP180;16737;50.932;6.780;2022-07-31T03:13:37;100476.00;;;25.00
9985;BMP180;16737;50.932;6.780;2022-07-31T03:16:07;100473.00;;;25.00
9985;BMP180;16737;50.932;6.780;2022-07-31T03:18:37;100472.00;;;25.00
9985;BMP180;16737;50.932;6.780;2022-07-31T03:21:05;100477.00;;;25.00
9985;BMP180;16737;50.932;6.780;2022-07-31T03:23:37;100472.00;;;25.00
9985;BMP180;16737;50.932;6.780;2022-07-31T03:26:05;100469.00;;;25.00
9985;BMP180;16737;50.932;6.780;2022-07-31T03:28:33;100468.00;;;25.00
9985;BMP180;16737;50.932;6.780;2022-07-31T03:31:01;100470.00;;;25.00
9985;BMP180;16737;50.932;6.780;2022-07-31T03:33:29;100468.00;;;25.00
9985;BMP180;16737;50.932;6.780;2022-07-31T03:35:56;100467.00;;;25.10
9985;BMP180;16737;50.932;6.780;2022-07-31T03:38:23;100465.00;;;25.10
9985;BMP180;16737;50.932;6.780;2022-07-31T03:40:52;100466.00;;;25.10
9985;BMP180;16737;50.932;6.780;2022-07-31T03:43:20;100462.00;;;25.10
9985;BMP180;16737;50.932;6.780;2022-07-31T03:45:50;100467.00;;;25.10
9985;BMP180;16737;50.932;6.780;2022-07-31T03:48:17;100464.00;;;25.20
9985;BMP180;16737;50.932;6.780;2022-07-31T03:50:45;100463.00;;;25.20
9985;BMP180;16737;50.932;6.780;2022-07-31T03:53:13;100463.00;;;25.20
9985;BMP180;16737;50.932;6.780;2022-07-31T03:55:41;100464.00;;;25.20
9985;BMP180;16737;50.932;6.780;2022-07-31T03:58:10;100470.00;;;25.20
9985;BMP180;16737;50.932;6.780;2022-07-31T04:00:38;100463.00;;;25.20
9985;BMP180;16737;50.932;6.780;2022-07-31T04:03:08;100473.00;;;25.20
9985;BMP180;16737;50.932;6.780;2022-07-31T04:05:36;100471.00;;;25.20
9985;BMP180;16737;50.932;6.780;2022-07-31T04:08:04;100475.00;;;25.20
9985;BMP180;16737;50.932;6.780;2022-07-31T04:10:31;100472.00;;;25.20
9985;BMP180;16737;50.932;6.780;2022-07-31T04:12:58;100469.00;;;25.20
9985;BMP180;16737;50.932;6.780;2022-07-31T04:15:27;100469.00;;;25.20
9985;BMP180;16737;50.932;6.780;2022-07-31T04:17:54;100463.00;;;25.20
9985;BMP180;16737;50.932;6.780;2022-07-31T04:20:22;100466.00;;;25.20
9985;BMP180;16737;50.932;6.780;2022-07-31T04:22:49;100463.00;;;25.20
9985;BMP180;16737;50.932;6.780;2022-07-31T04:25:16;100472.00;;;25.20
9985;BMP180;16737;50.932;6.780;2022-07-31T04:27:43;100468.00;;;25.20
9985;BMP180;16737;50.932;6.780;2022-07-31T04:30:11;100458.00;;;25.20
9985;BMP180;16737;50.932;6.780;2022-07-31T04:32:40;100463.00;;;25.20
9985;BMP180;16737;50.932;6.780;2022-07-31T04:35:09;100460.00;;;25.20
9985;BMP180;16737;50.932;6.780;2022-07-31T04:37:38;100457.00;;;25.20
9985;BMP180;16737;50.932;6.780;2022-07-31T04:40:07;100456.00;;;25.20
9985;BMP180;16737;50.932;6.780;2022-07-31T04:42:35;100463.00;;;25.20
9985;BMP180;16737;50.932;6.780;2022-07-31T04:45:03;100474.00;;;25.20
9985;BMP180;16737;50.932;6.780;2022-07-31T04:47:30;100465.00;;;25.20
9985;BMP180;16737;50.932;6.780;2022-07-31T04:49:59;100467.00;;;25.20
9985;BMP180;16737;50.932;6.780;2022-07-31T04:52:26;100477.00;;;25.20
9985;BMP180;16737;50.932;6.780;2022-07-31T04:54:53;100478.00;;;25.20
9985;BMP180;16737;50.932;6.780;2022-07-31T04:57:20;100471.00;;;25.10
9985;BMP180;16737;50.932;6.780;2022-07-31T04:59:47;100479.00;;;25.10
9985;BMP180;16737;50.932;6.780;2022-07-31T05:02:14;100476.00;;;25.20
9985;BMP180;16737;50.932;6.780;2022-07-31T05:04:41;100478.00;;;25.20
9985;BMP180;16737;50.932;6.780;2022-07-31T05:07:12;100482.00;;;25.20
9985;BMP180;16737;50.932;6.780;2022-07-31T05:09:39;100485.00;;;25.20
9985;BMP180;16737;50.932;6.780;2022-07-31T05:12:06;100485.00;;;25.20
9985;BMP180;16737;50.932;6.780;2022-07-31T05:14:33;100480.00;;;25.20
9985;BMP180;16737;50.932;6.780;2022-07-31T05:17:00;100480.00;;;25.20
9985;BMP180;16737;50.932;6.780;2022-07-31T05:19:28;100481.00;;;25.10
9985;BMP180;16737;50.932;6.780;2022-07-31T05:21:56;100481.00;;;25.10
9985;BMP180;16737;50.932;6.780;2022-07-31T05:24:25;100466.00;;;25.10
9985;BMP180;16737;50.932;6.780;2022-07-31T05:26:52;100482.00;;;25.10
9985;BMP180;16737;50.932;6.780;2022-07-31T05:29:20;100488.00;;;25.20
9985;BMP180;16737;50.932;6.780;2022-07-31T05:31:47;100479.00;;;25.20
9985;BMP180;16737;50.932;6.780;2022-07-31T05:34:14;100456.00;;;25.20
9985;BMP180;16737;50.932;6.780;2022-07-31T05:36:41;100476.00;;;25.20
9985;BMP180;16737;50.932;6.780;2022-07-31T05:39:08;100478.00;;;25.30
9985;BMP180;16737;50.932;6.780;2022-07-31T05:41:38;100486.00;;;25.30
9985;BMP180;16737;50.932;6.780;2022-07-31T05:44:05;100488.00;;;25.30
9985;BMP180;16737;50.932;6.780;2022-07-31T05:46:32;100484.00;;;25.30
9985;BMP180;16737;50.932;6.780;2022-07-31T05:49:00;100485.00;;;25.30
9985;BMP180;16737;50.932;6.780;2022-07-31T05:51:27;100479.00;;;25.40
9985;BMP180;16737;50.932;6.780;2022-07-31T05:53:55;100485.00;;;25.40
9985;BMP180;16737;50.932;6.780;2022-07-31T05:56:22;100476.00;;;25.40
9985;BMP180;16737;50.932;6.780;2022-07-31T05:58:52;100480.00;;;25.40
9985;BMP180;16737;50.932;6.780;2022-07-31T06:01:19;100483.00;;;25.40
9985;BMP180;16737;50.932;6.780;2022-07-31T06:03:46;100487.00;;;25.50
9985;BMP180;16737;50.932;6.780;2022-07-31T06:06:13;100488.00;;;25.50
9985;BMP180;16737;50.932;6.780;2022-07-31T06:08:43;100482.00;;;25.50
9985;BMP180;16737;50.932;6.780;2022-07-31T06:11:10;100473.00;;;25.50
9985;BMP180;16737;50.932;6.780;2022-07-31T06:13:37;100471.00;;;25.50
9985;BMP180;16737;50.932;6.780;2022-07-31T06:16:12;100479.00;;;25.50
9985;BMP180;16737;50.932;6.780;2022-07-31T06:18:41;100478.00;;;25.50
9985;BMP180;16737;50.932;6.780;2022-07-31T06:21:08;100482.00;;;25.50
9985;BMP180;16737;50.932;6.780;2022-07-31T06:23:37;100485.00;;;25.50
9985;BMP180;16737;50.932;6.780;2022-07-31T06:26:04;100479.00;;;25.60
9985;BMP180;16737;50.932;6.780;2022-07-31T06:28:31;100481.00;;;25.60
9985;BMP180;16737;50.932;6.780;2022-07-31T06:30:58;100485.00;;;25.60
9985;BMP180;16737;50.932;6.780;2022-07-31T06:33:27;100491.00;;;25.60
9985;BMP180;16737;50.932;6.780;2022-07-31T06:35:54;100491.00;;;25.60
9985;BMP180;16737;50.932;6.780;2022-07-31T06:38:21;100485.00;;;25.60
9985;BMP180;16737;50.932;6.780;2022-07-31T06:40:49;100478.00;;;25.70
9985;BMP180;16737;50.932;6.780;2022-07-31T06:43:16;100479.00;;;25.70
9985;BMP180;16737;50.932;6.780;2022-07-31T06:45:43;100477.00;;;25.70
9985;BMP180;16737;50.932;6.780;2022-07-31T06:48:12;100482.00;;;25.70
9985;BMP180;16737;50.932;6.780;2022-07-31T06:50:41;100476.00;;;25.70
9985;BMP180;16737;50.932;6.780;2022-07-31T06:53:08;100474.00;;;25.80
9985;BMP180;16737;50.932;6.780;2022-07-31T06:55:35;100476.00;;;25.80
9985;BMP180;16737;50.932;6.780;2022-07-31T06:58:03;100469.00;;;25.80
9985;BMP180;16737;50.932;6.780;2022-07-31T07:00:30;100480.00;;;25.80
9985;BMP180;16737;50.932;6.780;2022-07-31T07:02:57;100487.00;;;25.80
9985;BMP180;16737;50.932;6.780;2022-07-31T07:05:24;100486.00;;;25.80
9985;BMP180;16737;50.932;6.780;2022-07-31T07:07:52;100491.00;;;25.90
9985;BMP180;16737;50.932;6.780;2022-07-31T07:10:19;100490.00;;;25.90
9985;BMP180;16737;50.932;6.780;2022-07-31T07:12:49;100487.00;;;25.90
9985;BMP180;16737;50.932;6.780;2022-07-31T07:15:16;100483.00;;;25.90
9985;BMP180;16737;50.932;6.780;2022-07-31T07:17:43;100485.00;;;25.90
9985;BMP180;16737;50.932;6.780;2022-07-31T07:20:10;100488.00;;;25.90
9985;BMP180;16737;50.932;6.780;2022-07-31T07:22:38;100485.00;;;26.00
9985;BMP180;16737;50.932;6.780;2022-07-31T07:25:07;100493.00;;;25.90
9985;BMP180;16737;50.932;6.780;2022-07-31T07:27:34;100493.00;;;25.90
9985;BMP180;16737;50.932;6.780;2022-07-31T07:30:01;100493.00;;;25.90
9985;BMP180;16737;50.932;6.780;2022-07-31T07:32:28;100489.00;;;25.90
9985;BMP180;16737;50.932;6.780;2022-07-31T07:34:55;100485.00;;;25.90
9985;BMP180;16737;50.932;6.780;2022-07-31T07:37:22;100489.00;;;25.90
9985;BMP180;16737;50.932;6.780;2022-07-31T07:39:49;100486.00;;;25.90
9985;BMP180;16737;50.932;6.780;2022-07-31T07:42:17;100480.00;;;25.90
9985;BMP180;16737;50.932;6.780;2022-07-31T07:44:44;100476.00;;;25.80
9985;BMP180;16737;50.932;6.780;2022-07-31T07:47:11;100475.00;;;25.80
9985;BMP180;16737;50.932;6.780;2022-07-31T07:49:38;100475.00;;;25.80
9985;BMP180;16737;50.932;6.780;2022-07-31T07:52:05;100453.00;;;25.80
9985;BMP180;16737;50.932;6.780;2022-07-31T07:54:32;100467.00;;;25.90
9985;BMP180;16737;50.932;6.780;2022-07-31T07:57:00;100463.00;;;25.90
9985;BMP180;16737;50.932;6.780;2022-07-31T07:59:28;100457.00;;;25.90
9985;BMP180;16737;50.932;6.780;2022-07-31T08:01:55;100460.00;;;25.90
9985;BMP180;16737;50.932;6.780;2022-07-31T08:04:22;100456.00;;;25.90
9985;BMP180;16737;50.932;6.780;2022-07-31T08:06:49;100469.00;;;26.00
9985;BMP180;16737;50.932;6.780;2022-07-31T08:09:16;100458.00;;;26.00
9985;BMP180;16737;50.932;6.780;2022-07-31T08:11:45;100461.00;;;26.10
9985;BMP180;16737;50.932;6.780;2022-07-31T08:14:12;100451.00;;;26.10
9985;BMP180;16737;50.932;6.780;2022-07-31T08:16:40;100447.00;;;26.20
9985;BMP180;16737;50.932;6.780;2022-07-31T08:19:07;100453.00;;;26.20
9985;BMP180;16737;50.932;6.780;2022-07-31T08:21:34;100456.00;;;26.30
9985;BMP180;16737;50.932;6.780;2022-07-31T08:24:02;100451.00;;;26.40
9985;BMP180;16737;50.932;6.780;2022-07-31T08:26:29;100454.00;;;26.50
9985;BMP180;16737;50.932;6.780;2022-07-31T08:29:17;100454.00;;;26.50
9985;BMP180;16737;50.932;6.780;2022-07-31T08:31:45;100457.00;;;26.50
9985;BMP180;16737;50.932;6.780;2022-07-31T08:34:12;100452.00;;;26.60
9985;BMP180;16737;50.932;6.780;2022-07-31T08:36:39;100457.00;;;26.60
9985;BMP180;16737;50.932;6.780;2022-07-31T08:39:06;100456.00;;;26.60
9985;BMP180;16737;50.932;6.780;2022-07-31T08:41:35;100458.00;;;26.70
9985;BMP180;16737;50.932;6.780;2022-07-31T08:44:04;100444.00;;;26.80
9985;BMP180;16737;50.932;6.780;2022-07-31T08:46:35;100444.00;;;26.80
9985;BMP180;16737;50.932;6.780;2022-07-31T08:49:05;100443.00;;;27.00
9985;BMP180;16737;50.932;6.780;2022-07-31T08:51:37;100432.00;;;27.10
9985;BMP180;16737;50.932;6.780;2022-07-31T08:54:07;100429.00;;;27.10
9985;BMP180;16737;50.932;6.780;2022-07-31T08:56:36;100430.00;;;27.20
9985;BMP180;16737;50.932;6.780;2022-07-31T08:59:04;100442.00;;;27.30
9985;BMP180;16737;50.932;6.780;2022-07-31T09:01:33;100437.00;;;27.30
9985;BMP180;16737;50.932;6.780;2022-07-31T09:04:03;100438.00;;;27.40
9985;BMP180;16737;50.932;6.780;2022-07-31T09:06:30;100445.00;;;27.40
9985;BMP180;16737;50.932;6.780;2022-07-31T09:08:57;100441.00;;;27.50
9985;BMP180;16737;50.932;6.780;2022-07-31T09:11:24;100437.00;;;27.50
9985;BMP180;16737;50.932;6.780;2022-07-31T09:13:52;100444.00;;;27.50
9985;BMP180;16737;50.932;6.780;2022-07-31T09:16:19;100441.00;;;27.50
9985;BMP180;16737;50.932;6.780;2022-07-31T09:18:54;100436.00;;;27.50
9985;BMP180;16737;50.932;6.780;2022-07-31T09:21:23;100438.00;;;27.60
9985;BMP180;16737;50.932;6.780;2022-07-31T09:23:51;100441.00;;;27.60
9985;BMP180;16737;50.932;6.780;2022-07-31T09:26:19;100438.00;;;27.60
9985;BMP180;16737;50.932;6.780;2022-07-31T09:28:47;100432.00;;;27.60
9985;BMP180;16737;50.932;6.780;2022-07-31T09:31:16;100432.00;;;27.60
9985;BMP180;16737;50.932;6.780;2022-07-31T09:33:44;100433.00;;;27.60
9985;BMP180;16737;50.932;6.780;2022-07-31T09:36:12;100435.00;;;27.60
9985;BMP180;16737;50.932;6.780;2022-07-31T09:38:42;100439.00;;;27.60
9985;BMP180;16737;50.932;6.780;2022-07-31T09:41:11;100442.00;;;27.70
9985;BMP180;16737;50.932;6.780;2022-07-31T09:43:39;100439.00;;;27.70
9985;BMP180;16737;50.932;6.780;2022-07-31T09:46:07;100443.00;;;27.70
9985;BMP180;16737;50.932;6.780;2022-07-31T09:48:36;100443.00;;;27.70
9985;BMP180;16737;50.932;6.780;2022-07-31T09:51:05;100445.00;;;27.70
9985;BMP180;16737;50.932;6.780;2022-07-31T09:53:43;100440.00;;;27.70
9985;BMP180;16737;50.932;6.780;2022-07-31T09:56:11;100438.00;;;27.70
9985;BMP180;16737;50.932;6.780;2022-07-31T09:58:41;100450.00;;;27.80
9985;BMP180;16737;50.932;6.780;2022-07-31T10:01:10;100439.00;;;27.80
9985;BMP180;16737;50.932;6.780;2022-07-31T10:03:39;100445.00;;;27.90
9985;BMP180;16737;50.932;6.780;2022-07-31T10:06:11;100440.00;;;28.00
9985;BMP180;16737;50.932;6.780;2022-07-31T10:08:41;100444.00;;;28.10
9985;BMP180;16737;50.932;6.780;2022-07-31T10:11:12;100439.00;;;28.20
9985;BMP180;16737;50.932;6.780;2022-07-31T10:13:45;100439.00;;;28.20
9985;BMP180;16737;50.932;6.780;2022-07-31T10:16:14;100443.00;;;28.30
9985;BMP180;16737;50.932;6.780;2022-07-31T10:18:46;100433.00;;;28.40
9985;BMP180;16737;50.932;6.780;2022-07-31T10:21:16;100443.00;;;28.40
9985;BMP180;16737;50.932;6.780;2022-07-31T10:23:46;100440.00;;;28.50
9985;BMP180;16737;50.932;6.780;2022-07-31T10:26:13;100435.00;;;28.60
9985;BMP180;16737;50.932;6.780;2022-07-31T10:28:42;100427.00;;;28.70
9985;BMP180;16737;50.932;6.780;2022-07-31T10:31:11;100422.00;;;28.70
9985;BMP180;16737;50.932;6.780;2022-07-31T10:33:40;100434.00;;;28.80
9985;BMP180;16737;50.932;6.780;2022-07-31T10:36:14;100429.00;;;28.80
9985;BMP180;16737;50.932;6.780;2022-07-31T10:38:55;100428.00;;;28.90
9985;BMP180;16737;50.932;6.780;2022-07-31T10:41:44;100415.00;;;29.00
9985;BMP180;16737;50.932;6.780;2022-07-31T10:44:18;100425.00;;;29.10
9985;BMP180;16737;50.932;6.780;2022-07-31T10:46:47;100431.00;;;29.20
9985;BMP180;16737;50.932;6.780;2022-07-31T10:49:14;100425.00;;;29.30
9985;BMP180;16737;50.932;6.780;2022-07-31T10:51:49;100423.00;;;29.30
9985;BMP180;16737;50.932;6.780;2022-07-31T10:54:17;100420.00;;;29.40
9985;BMP180;16737;50.932;6.780;2022-07-31T10:56:45;100410.00;;;29.50
9985;BMP180;16737;50.932;6.780;2022-07-31T10:59:13;100415.00;;;29.60
9985;BMP180;16737;50.932;6.780;2022-07-31T11:01:47;100412.00;;;29.60
9985;BMP180;16737;50.932;6.780;2022-07-31T11:04:26;100405.00;;;29.70
9985;BMP180;16737;50.932;6.780;2022-07-31T11:06:53;100411.00;;;29.80
9985;BMP180;16737;50.932;6.780;2022-07-31T11:09:27;100408.00;;;29.90
9985;BMP180;16737;50.932;6.780;2022-07-31T11:11:56;100406.00;;;30.00
9985;BMP180;16737;50.932;6.780;2022-07-31T11:14:32;100408.00;;;30.10
9985;BMP180;16737;50.932;6.780;2022-07-31T11:16:59;100410.00;;;30.10
9985;BMP180;16737;50.932;6.780;2022-07-31T11:19:37;100396.00;;;30.20
9985;BMP180;16737;50.932;6.780;2022-07-31T11:22:13;100403.00;;;30.20
9985;BMP180;16737;50.932;6.780;2022-07-31T11:24:52;100400.00;;;30.20
9985;BMP180;16737;50.932;6.780;2022-07-31T11:27:29;100399.00;;;30.20
9985;BMP180;16737;50.932;6.780;2022-07-31T11:30:04;100395.00;;;30.20
9985;BMP180;16737;50.932;6.780;2022-07-31T11:32:31;100396.00;;;30.30
9985;BMP180;16737;50.932;6.780;2022-07-31T11:34:58;100397.00;;;30.40
9985;BMP180;16737;50.932;6.780;2022-07-31T11:37:28;100389.00;;;30.50
9985;BMP180;16737;50.932;6.780;2022-07-31T11:39:58;100401.00;;;30.60
9985;BMP180;16737;50.932;6.780;2022-07-31T11:42:26;100403.00;;;30.70
9985;BMP180;16737;50.932;6.780;2022-07-31T11:45:01;100392.00;;;30.70
9985;BMP180;16737;50.932;6.780;2022-07-31T11:47:37;100395.00;;;30.80
9985;BMP180;16737;50.932;6.780;2022-07-31T11:50:05;100380.00;;;30.90
9985;BMP180;16737;50.932;6.780;2022-07-31T11:52:32;100381.00;;;30.90
9985;BMP180;16737;50.932;6.780;2022-07-31T11:55:05;100380.00;;;31.00
9985;BMP180;16737;50.932;6.780;2022-07-31T11:57:33;100385.00;;;31.10
9985;BMP180;16737;50.932;6.780;2022-07-31T12:00:08;100380.00;;;31.10
9985;BMP180;16737;50.932;6.780;2022-07-31T12:02:41;100378.00;;;31.10
9985;BMP180;16737;50.932;6.780;2022-07-31T12:05:10;100377.00;;;31.10
9985;BMP180;16737;50.932;6.780;2022-07-31T12:07:40;100378.00;;;31.10
9985;BMP180;16737;50.932;6.780;2022-07-31T12:10:11;100372.00;;;31.20
9985;BMP180;16737;50.932;6.780;2022-07-31T12:12:41;100351.00;;;31.30
9985;BMP180;16737;50.932;6.780;2022-07-31T12:15:15;100370.00;;;31.40
9985;BMP180;16737;50.932;6.780;2022-07-31T12:17:43;100370.00;;;31.50
9985;BMP180;16737;50.932;6.780;2022-07-31T12:20:12;100362.00;;;31.60
9985;BMP180;16737;50.932;6.780;2022-07-31T12:22:39;100380.00;;;31.60
9985;BMP180;16737;50.932;6.780;2022-07-31T12:25:11;100371.00;;;31.70
9985;BMP180;16737;50.932;6.780;2022-07-31T12:27:38;100373.00;;;31.70
9985;BMP180;16737;50.932;6.780;2022-07-31T12:30:15;100376.00;;;31.70
9985;BMP180;16737;50.932;6.780;2022-07-31T12:32:42;100367.00;;;31.70
9985;BMP180;16737;50.932;6.780;2022-07-31T12:35:10;100364.00;;;31.70
9985;BMP180;16737;50.932;6.780;2022-07-31T12:37:45;100357.00;;;31.70
9985;BMP180;16737;50.932;6.780;2022-07-31T12:40:26;100359.00;;;31.70
9985;BMP180;16737;50.932;6.780;2022-07-31T12:42:54;100359.00;;;31.70
9985;BMP180;16737;50.932;6.780;2022-07-31T12:45:31;100354.00;;;31.60
9985;BMP180;16737;50.932;6.780;2022-07-31T12:47:58;100354.00;;;31.70
9985;BMP180;16737;50.932;6.780;2022-07-31T12:50:28;100351.00;;;31.70
9985;BMP180;16737;50.932;6.780;2022-07-31T12:52:59;100351.00;;;31.60
9985;BMP180;16737;50.932;6.780;2022-07-31T12:55:31;100345.00;;;31.60
9985;BMP180;16737;50.932;6.780;2022-07-31T12:57:59;100347.00;;;31.70
9985;BMP180;16737;50.932;6.780;2022-07-31T13:00:27;100343.00;;;31.70
9985;BMP180;16737;50.932;6.780;2022-07-31T13:02:56;100337.00;;;31.70
9985;BMP180;16737;50.932;6.780;2022-07-31T13:05:24;100331.00;;;31.70
9985;BMP180;16737;50.932;6.780;2022-07-31T13:07:52;100331.00;;;31.60
9985;BMP180;16737;50.932;6.780;2022-07-31T13:10:20;100324.00;;;31.70
9985;BMP180;16737;50.932;6.780;2022-07-31T13:12:49;100337.00;;;31.70
9985;BMP180;16737;50.932;6.780;2022-07-31T13:15:17;100324.00;;;31.80
9985;BMP180;16737;50.932;6.780;2022-07-31T13:17:44;100324.00;;;31.80
9985;BMP180;16737;50.932;6.780;2022-07-31T13:20:12;100316.00;;;31.80
9985;BMP180;16737;50.932;6.780;2022-07-31T13:22:40;100309.00;;;31.80
9985;BMP180;16737;50.932;6.780;2022-07-31T13:25:08;100310.00;;;31.80
9985;BMP180;16737;50.932;6.780;2022-07-31T13:27:35;100322.00;;;31.80
9985;BMP180;16737;50.932;6.780;2022-07-31T13:30:07;100313.00;;;31.80
9985;BMP180;16737;50.932;6.780;2022-07-31T13:32:34;100296.00;;;31.80
9985;BMP180;16737;50.932;6.780;2022-07-31T13:35:02;100307.00;;;31.80
9985;BMP180;16737;50.932;6.780;2022-07-31T13:37:30;100304.00;;;31.90
9985;BMP180;16737;50.932;6.780;2022-07-31T13:39:57;100301.00;;;31.90
9985;BMP180;16737;50.932;6.780;2022-07-31T13:42:24;100294.00;;;31.90
9985;BMP180;16737;50.932;6.780;2022-07-31T13:44:51;100293.00;;;32.00
9985;BMP180;16737;50.932;6.780;2022-07-31T13:47:19;100296.00;;;32.00
9985;BMP180;16737;50.932;6.780;2022-07-31T13:49:46;100299.00;;;32.10
9985;BMP180;16737;50.932;6.780;2022-07-31T13:52:14;100316.00;;;32.10
9985;BMP180;16737;50.932;6.780;2022-07-31T13:54:41;100311.00;;;32.10
9985;BMP180;16737;50.932;6.780;2022-07-31T13:57:08;100303.00;;;32.10
9985;BMP180;16737;50.932;6.780;2022-07-31T13:59:35;100304.00;;;32.10
9985;BMP180;16737;50.932;6.780;2022-07-31T14:02:03;100311.00;;;32.10
9985;BMP180;16737;50.932;6.780;2022-07-31T14:04:31;100309.00;;;32.00
9985;BMP180;16737;50.932;6.780;2022-07-31T14:06:59;100300.00;;;31.90
9985;BMP180;16737;50.932;6.780;2022-07-31T14:09:26;100301.00;;;31.90
9985;BMP180;16737;50.932;6.780;2022-07-31T14:11:53;100301.00;;;31.80
9985;BMP180;16737;50.932;6.780;2022-07-31T14:14:20;100297.00;;;31.80
9985;BMP180;16737;50.932;6.780;2022-07-31T14:16:47;100303.00;;;31.80
9985;BMP180;16737;50.932;6.780;2022-07-31T14:19:14;100312.00;;;31.70